Aviation Digital Data Service (ADDS)

Output produced by METARs form (1725 UTC 25 October 2014)
found at http://www.aviationweather.gov/adds/metars/
 
METAR text: KCMI 251653Z 25009KT 8SM CLR 19/14 A3001 RMK AO2 SLP160 T01890139 $
Conditions at: KCMI (CHAMPAIGN/URBANA, IL, US) observed 1653 UTC 25 October 2014
Temperature: 18.9°C (66°F)
Dewpoint: 13.9°C (57°F) [RH = 73%]
Pressure (altimeter): 30.01 inches Hg (1016.3 mb)
[Sea-level pressure: 1016.0 mb]
Winds: from the WSW (250 degrees) at 10 MPH (9 knots; 4.7 m/s)
Visibility: 8 miles (13 km)
Ceiling: at least 12,000 feet AGL
Clouds: sky clear below 12,000 feet AGL
Weather:
SOME DATA ABOVE MAY BE INACCURATE!!!
"$" is an indication the sensor requires maintenance

METAR text: KCMI 251626Z 27008KT 6SM HZ SCT004 17/14 A3001 RMK AO2 T01670139 $
Conditions at: KCMI (CHAMPAIGN/URBANA, IL, US) observed 1626 UTC 25 October 2014
Temperature: 16.7°C (62°F)
Dewpoint: 13.9°C (57°F) [RH = 84%]
Pressure (altimeter): 30.01 inches Hg (1016.3 mb)
Winds: from the W (270 degrees) at 9 MPH (8 knots; 4.2 m/s)
Visibility: 6 miles (10 km)
Ceiling: at least 12,000 feet AGL
Clouds: scattered clouds at 400 feet AGL
Weather: HZ  (haze)
SOME DATA ABOVE MAY BE INACCURATE!!!
"$" is an indication the sensor requires maintenance

METAR text: KCMI 251608Z 27009KT 4SM BR BKN004 16/14 A3001 RMK AO2 T01560139 $
Conditions at: KCMI (CHAMPAIGN/URBANA, IL, US) observed 1608 UTC 25 October 2014
Temperature: 15.6°C (60°F)
Dewpoint: 13.9°C (57°F) [RH = 90%]
Pressure (altimeter): 30.01 inches Hg (1016.3 mb)
Winds: from the W (270 degrees) at 10 MPH (9 knots; 4.7 m/s)
Visibility: 4 miles (6 km)
Ceiling: 400 feet AGL
Clouds: broken clouds at 400 feet AGL
Weather: BR  (mist)
SOME DATA ABOVE MAY BE INACCURATE!!!
"$" is an indication the sensor requires maintenance

METAR text: KCMI 251604Z 29010KT 5SM BR SCT006 16/14 A3001 RMK AO2 T01610139 $
Conditions at: KCMI (CHAMPAIGN/URBANA, IL, US) observed 1604 UTC 25 October 2014
Temperature: 16.1°C (61°F)
Dewpoint: 13.9°C (57°F) [RH = 87%]
Pressure (altimeter): 30.01 inches Hg (1016.3 mb)
Winds: from the WNW (290 degrees) at 12 MPH (10 knots; 5.2 m/s)
Visibility: 5 miles (8 km)
Ceiling: at least 12,000 feet AGL
Clouds: scattered clouds at 600 feet AGL
Weather: BR  (mist)
SOME DATA ABOVE MAY BE INACCURATE!!!
"$" is an indication the sensor requires maintenance

METAR text: KCMI 251553Z 28011G16KT 6SM HZ CLR 17/14 A3001 RMK AO2 SLP162 T01720144 $
Conditions at: KCMI (CHAMPAIGN/URBANA, IL, US) observed 1553 UTC 25 October 2014
Temperature: 17.2°C (63°F)
Dewpoint: 14.4°C (58°F) [RH = 84%]
Pressure (altimeter): 30.01 inches Hg (1016.3 mb)
[Sea-level pressure: 1016.2 mb]
Winds: from the W (280 degrees) at 13 MPH (11 knots; 5.7 m/s)
gusting to 18 MPH (16 knots; 8.3 m/s)
Visibility: 6 miles (10 km)
Ceiling: at least 12,000 feet AGL
Clouds: sky clear below 12,000 feet AGL
Weather: HZ  (haze)
SOME DATA ABOVE MAY BE INACCURATE!!!
"$" is an indication the sensor requires maintenance

Forecast for: KCMI (CHAMPAIGN/URBANA, IL, US)
Text: KCMI 251722Z 2518/2618 29008KT P6SM SKC
Forecast period: 1800 to 2300 UTC 25 October 2014
Forecast type: FROM: standard forecast or significant change
Winds: from the WNW (290 degrees) at 9 MPH (8 knots; 4.2 m/s)
Visibility: 6 or more miles (10+ km)
Clouds: clear skies
Weather: no significant weather forecast for this period
Text: FM252300 VRB03KT P6SM SKC
Forecast period: 2300 UTC 25 October 2014 to 1500 UTC 26 October 2014
Forecast type: FROM: standard forecast or significant change
Winds: variable direction winds at 3 MPH (3 knots; 1.6 m/s)
Visibility: 6 or more miles (10+ km)
Clouds: clear skies
Weather: no significant weather forecast for this period
Text: FM261500 08005KT P6SM SKC
Forecast period: 1500 to 1800 UTC 26 October 2014
Forecast type: FROM: standard forecast or significant change
Winds: from the E (80 degrees) at 6 MPH (5 knots; 2.6 m/s)
Visibility: 6 or more miles (10+ km)
Clouds: clear skies
Weather: no significant weather forecast for this period